sensor_id;sensor_type;location;lat;lon;timestamp;temperature;humidity
15646;DHT22;7922;43.622;1.476;2022-07-19T00:02:02;27.00;84.40
15646;DHT22;7922;43.622;1.476;2022-07-19T00:04:28;27.00;85.00
15646;DHT22;7922;43.622;1.476;2022-07-19T00:06:54;27.00;85.30
15646;DHT22;7922;43.622;1.476;2022-07-19T00:09:21;27.00;85.70
15646;DHT22;7922;43.622;1.476;2022-07-19T00:11:47;27.00;86.20
15646;DHT22;7922;43.622;1.476;2022-07-19T00:14:13;27.00;86.80
15646;DHT22;7922;43.622;1.476;2022-07-19T00:16:39;27.00;87.70
15646;DHT22;7922;43.622;1.476;2022-07-19T00:19:05;27.00;88.50
15646;DHT22;7922;43.622;1.476;2022-07-19T00:21:30;27.00;89.70
15646;DHT22;7922;43.622;1.476;2022-07-19T00:23:56;27.00;90.10
15646;DHT22;7922;43.622;1.476;2022-07-19T00:26:22;27.00;90.40
15646;DHT22;7922;43.622;1.476;2022-07-19T00:28:47;26.90;90.80
15646;DHT22;7922;43.622;1.476;2022-07-19T00:31:13;26.90;91.00
15646;DHT22;7922;43.622;1.476;2022-07-19T00:33:39;26.90;91.50
15646;DHT22;7922;43.622;1.476;2022-07-19T00:36:05;26.80;91.70
15646;DHT22;7922;43.622;1.476;2022-07-19T00:38:30;26.80;92.20
15646;DHT22;7922;43.622;1.476;2022-07-19T00:40:56;26.80;92.60
15646;DHT22;7922;43.622;1.476;2022-07-19T00:43:22;26.80;93.00
15646;DHT22;7922;43.622;1.476;2022-07-19T00:45:47;26.80;93.30
15646;DHT22;7922;43.622;1.476;2022-07-19T00:48:14;26.70;93.60
15646;DHT22;7922;43.622;1.476;2022-07-19T00:50:39;26.70;93.90
15646;DHT22;7922;43.622;1.476;2022-07-19T00:53:05;26.70;94.20
15646;DHT22;7922;43.622;1.476;2022-07-19T00:55:33;26.60;94.40
15646;DHT22;7922;43.622;1.476;2022-07-19T00:58:00;26.60;94.90
15646;DHT22;7922;43.622;1.476;2022-07-19T01:00:27;26.60;95.20
15646;DHT22;7922;43.622;1.476;2022-07-19T01:02:53;26.50;95.50
15646;DHT22;7922;43.622;1.476;2022-07-19T01:05:19;26.50;95.80
15646;DHT22;7922;43.622;1.476;2022-07-19T01:07:46;26.50;96.20
15646;DHT22;7922;43.622;1.476;2022-07-19T01:10:14;26.50;96.50
15646;DHT22;7922;43.622;1.476;2022-07-19T01:12:40;26.50;97.10
15646;DHT22;7922;43.622;1.476;2022-07-19T01:15:17;26.40;97.50
15646;DHT22;7922;43.622;1.476;2022-07-19T01:17:44;26.40;98.00
15646;DHT22;7922;43.622;1.476;2022-07-19T01:20:10;26.40;98.50
15646;DHT22;7922;43.622;1.476;2022-07-19T01:22:36;26.40;98.90
15646;DHT22;7922;43.622;1.476;2022-07-19T01:25:02;26.30;99.30
15646;DHT22;7922;43.622;1.476;2022-07-19T01:27:28;26.30;99.70
15646;DHT22;7922;43.622;1.476;2022-07-19T01:29:53;26.30;99.90
15646;DHT22;7922;43.622;1.476;2022-07-19T01:32:19;26.20;99.90
15646;DHT22;7922;43.622;1.476;2022-07-19T01:34:45;26.20;99.90
15646;DHT22;7922;43.622;1.476;2022-07-19T01:37:10;26.20;99.90
15646;DHT22;7922;43.622;1.476;2022-07-19T01:39:36;26.20;99.90
15646;DHT22;7922;43.622;1.476;2022-07-19T01:42:02;26.20;99.90
15646;DHT22;7922;43.622;1.476;2022-07-19T01:44:27;26.10;99.90
15646;DHT22;7922;43.622;1.476;2022-07-19T01:46:53;26.10;99.90
15646;DHT22;7922;43.622;1.476;2022-07-19T01:49:19;26.00;99.90
15646;DHT22;7922;43.622;1.476;2022-07-19T01:51:44;26.00;99.90
15646;DHT22;7922;43.622;1.476;2022-07-19T01:54:10;26.00;99.90
15646;DHT22;7922;43.622;1.476;2022-07-19T01:56:36;25.90;99.90
15646;DHT22;7922;43.622;1.476;2022-07-19T01:59:01;25.90;99.90
15646;DHT22;7922;43.622;1.476;2022-07-19T02:01:27;25.90;99.90
15646;DHT22;7922;43.622;1.476;2022-07-19T02:03:53;25.80;99.90
15646;DHT22;7922;43.622;1.476;2022-07-19T02:06:18;25.80;99.90
15646;DHT22;7922;43.622;1.476;2022-07-19T02:08:44;25.70;99.90
15646;DHT22;7922;43.622;1.476;2022-07-19T02:11:10;25.70;99.90
15646;DHT22;7922;43.622;1.476;2022-07-19T02:13:54;25.70;99.90
15646;DHT22;7922;43.622;1.476;2022-07-19T02:16:20;25.70;99.90
15646;DHT22;7922;43.622;1.476;2022-07-19T02:18:45;25.60;99.90
15646;DHT22;7922;43.622;1.476;2022-07-19T02:21:11;25.60;99.90
15646;DHT22;7922;43.622;1.476;2022-07-19T02:23:37;25.60;99.90
15646;DHT22;7922;43.622;1.476;2022-07-19T02:26:02;25.50;99.90
15646;DHT22;7922;43.622;1.476;2022-07-19T02:28:28;25.50;99.90
15646;DHT22;7922;43.622;1.476;2022-07-19T02:30:54;25.60;99.90
15646;DHT22;7922;43.622;1.476;2022-07-19T02:33:19;25.50;99.90
15646;DHT22;7922;43.622;1.476;2022-07-19T02:35:45;25.50;99.90
15646;DHT22;7922;43.622;1.476;2022-07-19T02:38:10;25.50;99.90
15646;DHT22;7922;43.622;1.476;2022-07-19T02:40:36;25.50;99.90
15646;DHT22;7922;43.622;1.476;2022-07-19T02:43:02;25.50;99.90
15646;DHT22;7922;43.622;1.476;2022-07-19T02:45:27;25.50;99.90
15646;DHT22;7922;43.622;1.476;2022-07-19T02:47:53;25.50;99.90
15646;DHT22;7922;43.622;1.476;2022-07-19T02:50:19;25.50;99.90
15646;DHT22;7922;43.622;1.476;2022-07-19T02:52:44;25.40;99.90
15646;DHT22;7922;43.622;1.476;2022-07-19T02:55:10;25.40;99.90
15646;DHT22;7922;43.622;1.476;2022-07-19T02:57:36;25.40;99.90
15646;DHT22;7922;43.622;1.476;2022-07-19T03:00:04;25.40;99.90
15646;DHT22;7922;43.622;1.476;2022-07-19T03:02:32;25.30;99.90
15646;DHT22;7922;43.622;1.476;2022-07-19T03:18:13;25.30;99.90
15646;DHT22;7922;43.622;1.476;2022-07-19T03:20:38;25.20;99.90
15646;DHT22;7922;43.622;1.476;2022-07-19T03:23:04;25.20;99.90
15646;DHT22;7922;43.622;1.476;2022-07-19T03:25:30;25.20;99.90
15646;DHT22;7922;43.622;1.476;2022-07-19T03:27:55;25.10;99.90
15646;DHT22;7922;43.622;1.476;2022-07-19T03:30:21;25.10;99.90
15646;DHT22;7922;43.622;1.476;2022-07-19T03:32:47;25.10;99.90
15646;DHT22;7922;43.622;1.476;2022-07-19T03:35:13;25.10;99.90
15646;DHT22;7922;43.622;1.476;2022-07-19T03:37:39;25.00;99.90
15646;DHT22;7922;43.622;1.476;2022-07-19T03:40:05;25.00;99.90
15646;DHT22;7922;43.622;1.476;2022-07-19T03:42:31;25.00;99.90
15646;DHT22;7922;43.622;1.476;2022-07-19T03:44:57;25.00;99.90
15646;DHT22;7922;43.622;1.476;2022-07-19T03:47:23;24.90;99.90
15646;DHT22;7922;43.622;1.476;2022-07-19T03:49:48;24.90;99.90
15646;DHT22;7922;43.622;1.476;2022-07-19T03:52:14;24.80;99.90
15646;DHT22;7922;43.622;1.476;2022-07-19T03:54:40;24.90;99.90
15646;DHT22;7922;43.622;1.476;2022-07-19T03:57:06;24.80;99.90
15646;DHT22;7922;43.622;1.476;2022-07-19T03:59:31;24.90;99.90
15646;DHT22;7922;43.622;1.476;2022-07-19T04:01:57;24.90;99.90
15646;DHT22;7922;43.622;1.476;2022-07-19T04:04:23;24.90;99.90
15646;DHT22;7922;43.622;1.476;2022-07-19T04:06:48;24.80;99.90
15646;DHT22;7922;43.622;1.476;2022-07-19T04:09:14;24.80;99.90
15646;DHT22;7922;43.622;1.476;2022-07-19T04:11:40;24.80;99.90
15646;DHT22;7922;43.622;1.476;2022-07-19T04:14:05;24.80;99.90
15646;DHT22;7922;43.622;1.476;2022-07-19T04:16:31;24.80;99.90
15646;DHT22;7922;43.622;1.476;2022-07-19T04:18:57;24.70;99.90
15646;DHT22;7922;43.622;1.476;2022-07-19T04:21:22;24.80;99.90
15646;DHT22;7922;43.622;1.476;2022-07-19T04:23:48;24.70;99.90
15646;DHT22;7922;43.622;1.476;2022-07-19T04:26:14;24.70;99.90
15646;DHT22;7922;43.622;1.476;2022-07-19T04:28:40;24.70;99.90
15646;DHT22;7922;43.622;1.476;2022-07-19T04:31:05;24.80;99.90
15646;DHT22;7922;43.622;1.476;2022-07-19T04:33:31;24.80;99.90
15646;DHT22;7922;43.622;1.476;2022-07-19T04:47:04;24.80;99.90
15646;DHT22;7922;43.622;1.476;2022-07-19T04:49:30;24.80;99.90
15646;DHT22;7922;43.622;1.476;2022-07-19T04:51:55;24.80;99.90
15646;DHT22;7922;43.622;1.476;2022-07-19T04:54:21;24.90;99.90
15646;DHT22;7922;43.622;1.476;2022-07-19T04:56:47;24.90;99.90
15646;DHT22;7922;43.622;1.476;2022-07-19T04:59:12;25.00;99.90
15646;DHT22;7922;43.622;1.476;2022-07-19T05:01:38;25.00;99.90
15646;DHT22;7922;43.622;1.476;2022-07-19T05:04:04;25.00;99.90
15646;DHT22;7922;43.622;1.476;2022-07-19T05:06:30;25.10;99.90
15646;DHT22;7922;43.622;1.476;2022-07-19T05:08:55;25.10;99.90
15646;DHT22;7922;43.622;1.476;2022-07-19T05:11:22;25.10;99.90
15646;DHT22;7922;43.622;1.476;2022-07-19T05:13:48;25.10;99.90
15646;DHT22;7922;43.622;1.476;2022-07-19T05:16:14;25.20;99.90
15646;DHT22;7922;43.622;1.476;2022-07-19T05:18:39;25.20;99.90
15646;DHT22;7922;43.622;1.476;2022-07-19T05:21:05;25.30;99.90
15646;DHT22;7922;43.622;1.476;2022-07-19T05:23:31;25.30;99.90
15646;DHT22;7922;43.622;1.476;2022-07-19T05:25:57;25.40;99.90
15646;DHT22;7922;43.622;1.476;2022-07-19T05:28:23;25.40;99.90
15646;DHT22;7922;43.622;1.476;2022-07-19T05:30:48;25.50;99.90
15646;DHT22;7922;43.622;1.476;2022-07-19T05:33:14;25.50;99.90
15646;DHT22;7922;43.622;1.476;2022-07-19T05:35:42;25.60;99.90
15646;DHT22;7922;43.622;1.476;2022-07-19T05:38:07;25.70;99.90
15646;DHT22;7922;43.622;1.476;2022-07-19T05:40:33;25.80;99.90
15646;DHT22;7922;43.622;1.476;2022-07-19T05:42:59;25.90;99.90
15646;DHT22;7922;43.622;1.476;2022-07-19T05:45:26;26.00;99.90
15646;DHT22;7922;43.622;1.476;2022-07-19T05:47:52;26.00;99.90
15646;DHT22;7922;43.622;1.476;2022-07-19T05:50:17;26.10;99.90
15646;DHT22;7922;43.622;1.476;2022-07-19T05:52:43;26.10;99.90
15646;DHT22;7922;43.622;1.476;2022-07-19T05:55:09;26.20;99.90
15646;DHT22;7922;43.622;1.476;2022-07-19T05:57:34;26.30;99.90
15646;DHT22;7922;43.622;1.476;2022-07-19T06:00:00;26.40;99.90
15646;DHT22;7922;43.622;1.476;2022-07-19T06:02:26;26.50;99.90
15646;DHT22;7922;43.622;1.476;2022-07-19T06:04:52;26.60;99.90
15646;DHT22;7922;43.622;1.476;2022-07-19T06:07:17;26.50;99.90
15646;DHT22;7922;43.622;1.476;2022-07-19T06:09:43;26.50;99.90
15646;DHT22;7922;43.622;1.476;2022-07-19T06:12:09;26.60;99.90
15646;DHT22;7922;43.622;1.476;2022-07-19T06:14:34;26.60;99.90
15646;DHT22;7922;43.622;1.476;2022-07-19T06:17:00;26.60;99.90
15646;DHT22;7922;43.622;1.476;2022-07-19T06:19:26;26.80;99.90
15646;DHT22;7922;43.622;1.476;2022-07-19T06:21:52;26.90;99.90
15646;DHT22;7922;43.622;1.476;2022-07-19T06:24:19;27.00;99.90
15646;DHT22;7922;43.622;1.476;2022-07-19T06:26:44;27.00;99.90
15646;DHT22;7922;43.622;1.476;2022-07-19T06:29:10;27.20;99.90
15646;DHT22;7922;43.622;1.476;2022-07-19T06:31:36;27.10;99.90
15646;DHT22;7922;43.622;1.476;2022-07-19T06:34:02;27.30;99.90
15646;DHT22;7922;43.622;1.476;2022-07-19T06:36:27;27.50;99.90
15646;DHT22;7922;43.622;1.476;2022-07-19T06:38:53;27.50;99.90
15646;DHT22;7922;43.622;1.476;2022-07-19T06:41:19;27.60;99.90
15646;DHT22;7922;43.622;1.476;2022-07-19T06:43:45;27.60;99.90
15646;DHT22;7922;43.622;1.476;2022-07-19T06:46:11;27.50;99.90
15646;DHT22;7922;43.622;1.476;2022-07-19T06:48:37;27.60;99.90
15646;DHT22;7922;43.622;1.476;2022-07-19T06:51:05;27.70;99.90
15646;DHT22;7922;43.622;1.476;2022-07-19T06:53:31;27.70;99.90
15646;DHT22;7922;43.622;1.476;2022-07-19T06:55:57;27.80;99.90
15646;DHT22;7922;43.622;1.476;2022-07-19T06:58:23;27.90;99.90
15646;DHT22;7922;43.622;1.476;2022-07-19T07:00:48;28.00;99.90
15646;DHT22;7922;43.622;1.476;2022-07-19T07:03:15;28.10;99.90
15646;DHT22;7922;43.622;1.476;2022-07-19T07:05:43;28.00;99.90
15646;DHT22;7922;43.622;1.476;2022-07-19T07:08:08;27.70;99.90
15646;DHT22;7922;43.622;1.476;2022-07-19T07:10:34;27.80;99.90
15646;DHT22;7922;43.622;1.476;2022-07-19T07:13:00;27.90;99.90
15646;DHT22;7922;43.622;1.476;2022-07-19T07:15:25;27.80;99.90
15646;DHT22;7922;43.622;1.476;2022-07-19T07:17:51;27.70;99.90
15646;DHT22;7922;43.622;1.476;2022-07-19T07:20:17;27.50;99.90
15646;DHT22;7922;43.622;1.476;2022-07-19T07:22:43;27.40;99.90
15646;DHT22;7922;43.622;1.476;2022-07-19T07:25:08;27.50;99.90
15646;DHT22;7922;43.622;1.476;2022-07-19T07:27:34;27.70;99.90
15646;DHT22;7922;43.622;1.476;2022-07-19T07:30:00;27.90;99.90
15646;DHT22;7922;43.622;1.476;2022-07-19T07:32:26;28.20;99.90
15646;DHT22;7922;43.622;1.476;2022-07-19T07:34:53;28.50;99.90
15646;DHT22;7922;43.622;1.476;2022-07-19T07:37:19;28.60;99.90
15646;DHT22;7922;43.622;1.476;2022-07-19T07:39:45;28.80;99.90
15646;DHT22;7922;43.622;1.476;2022-07-19T07:42:10;28.70;99.90
15646;DHT22;7922;43.622;1.476;2022-07-19T07:44:36;28.80;99.90
15646;DHT22;7922;43.622;1.476;2022-07-19T07:47:02;28.70;99.90
15646;DHT22;7922;43.622;1.476;2022-07-19T07:49:28;28.60;99.90
15646;DHT22;7922;43.622;1.476;2022-07-19T07:51:55;29.00;99.90
15646;DHT22;7922;43.622;1.476;2022-07-19T07:54:21;29.00;99.90
15646;DHT22;7922;43.622;1.476;2022-07-19T07:56:47;29.20;99.90
15646;DHT22;7922;43.622;1.476;2022-07-19T07:59:13;29.00;99.90
15646;DHT22;7922;43.622;1.476;2022-07-19T08:01:38;29.00;99.90
15646;DHT22;7922;43.622;1.476;2022-07-19T08:04:05;29.40;99.90
15646;DHT22;7922;43.622;1.476;2022-07-19T08:06:31;29.50;99.90
15646;DHT22;7922;43.622;1.476;2022-07-19T08:08:57;29.40;99.90
15646;DHT22;7922;43.622;1.476;2022-07-19T08:11:22;29.20;99.90
15646;DHT22;7922;43.622;1.476;2022-07-19T08:13:48;29.10;99.90
15646;DHT22;7922;43.622;1.476;2022-07-19T08:16:14;29.10;99.90
15646;DHT22;7922;43.622;1.476;2022-07-19T08:18:42;29.00;99.90
15646;DHT22;7922;43.622;1.476;2022-07-19T08:21:07;29.20;99.90
15646;DHT22;7922;43.622;1.476;2022-07-19T08:23:33;29.50;99.90
15646;DHT22;7922;43.622;1.476;2022-07-19T08:25:59;29.40;99.90
15646;DHT22;7922;43.622;1.476;2022-07-19T08:28:24;29.70;99.90
15646;DHT22;7922;43.622;1.476;2022-07-19T08:30:51;30.10;99.90
15646;DHT22;7922;43.622;1.476;2022-07-19T08:33:17;30.30;99.90
15646;DHT22;7922;43.622;1.476;2022-07-19T08:35:44;30.30;99.90
15646;DHT22;7922;43.622;1.476;2022-07-19T08:38:10;30.50;99.90
15646;DHT22;7922;43.622;1.476;2022-07-19T08:40:36;30.40;99.90
15646;DHT22;7922;43.622;1.476;2022-07-19T08:43:05;30.10;99.90
15646;DHT22;7922;43.622;1.476;2022-07-19T08:45:32;30.10;99.90
15646;DHT22;7922;43.622;1.476;2022-07-19T08:47:58;30.00;99.90
15646;DHT22;7922;43.622;1.476;2022-07-19T08:50:25;30.00;99.90
15646;DHT22;7922;43.622;1.476;2022-07-19T08:52:52;30.20;99.90
15646;DHT22;7922;43.622;1.476;2022-07-19T08:55:18;30.20;99.90
15646;DHT22;7922;43.622;1.476;2022-07-19T08:57:44;30.30;99.90
15646;DHT22;7922;43.622;1.476;2022-07-19T09:00:29;30.30;99.90
15646;DHT22;7922;43.622;1.476;2022-07-19T09:03:01;30.20;99.90
15646;DHT22;7922;43.622;1.476;2022-07-19T09:05:28;30.30;99.90
15646;DHT22;7922;43.622;1.476;2022-07-19T09:08:07;30.50;99.90
15646;DHT22;7922;43.622;1.476;2022-07-19T09:10:35;30.70;99.90
15646;DHT22;7922;43.622;1.476;2022-07-19T09:13:10;30.80;99.90
15646;DHT22;7922;43.622;1.476;2022-07-19T09:15:52;30.60;99.90
15646;DHT22;7922;43.622;1.476;2022-07-19T09:18:28;30.30;99.90
15646;DHT22;7922;43.622;1.476;2022-07-19T09:21:05;30.50;99.90
15646;DHT22;7922;43.622;1.476;2022-07-19T09:23:31;30.60;99.90
15646;DHT22;7922;43.622;1.476;2022-07-19T09:26:00;30.70;99.90
15646;DHT22;7922;43.622;1.476;2022-07-19T09:28:27;30.70;99.90
15646;DHT22;7922;43.622;1.476;2022-07-19T09:30:57;30.90;99.90
15646;DHT22;7922;43.622;1.476;2022-07-19T09:33:27;30.70;99.90
15646;DHT22;7922;43.622;1.476;2022-07-19T09:35:56;30.70;99.90
15646;DHT22;7922;43.622;1.476;2022-07-19T09:38:30;30.70;99.90
15646;DHT22;7922;43.622;1.476;2022-07-19T09:44:02;30.60;99.90
15646;DHT22;7922;43.622;1.476;2022-07-19T09:46:35;30.60;99.90
15646;DHT22;7922;43.622;1.476;2022-07-19T09:49:15;30.60;99.90
15646;DHT22;7922;43.622;1.476;2022-07-19T09:51:48;30.80;99.90
15646;DHT22;7922;43.622;1.476;2022-07-19T09:54:16;31.00;99.90
15646;DHT22;7922;43.622;1.476;2022-07-19T09:56:44;30.90;99.90
15646;DHT22;7922;43.622;1.476;2022-07-19T09:59:11;31.00;99.90
15646;DHT22;7922;43.622;1.476;2022-07-19T10:01:38;31.10;99.90
15646;DHT22;7922;43.622;1.476;2022-07-19T10:04:08;31.10;99.90
15646;DHT22;7922;43.622;1.476;2022-07-19T10:06:34;31.10;99.90
15646;DHT22;7922;43.622;1.476;2022-07-19T10:09:06;31.30;99.90
15646;DHT22;7922;43.622;1.476;2022-07-19T10:11:32;31.40;99.90
15646;DHT22;7922;43.622;1.476;2022-07-19T10:14:00;31.40;99.90
15646;DHT22;7922;43.622;1.476;2022-07-19T10:21:46;31.60;99.90
15646;DHT22;7922;43.622;1.476;2022-07-19T10:24:13;31.50;99.90
15646;DHT22;7922;43.622;1.476;2022-07-19T10:26:41;31.70;99.90
15646;DHT22;7922;43.622;1.476;2022-07-19T10:29:12;31.80;99.90
15646;DHT22;7922;43.622;1.476;2022-07-19T10:31:40;31.80;99.90
15646;DHT22;7922;43.622;1.476;2022-07-19T10:34:07;31.90;99.90
15646;DHT22;7922;43.622;1.476;2022-07-19T10:36:38;31.90;99.90
15646;DHT22;7922;43.622;1.476;2022-07-19T10:42:12;31.70;99.90
15646;DHT22;7922;43.622;1.476;2022-07-19T10:50:02;32.00;99.90
15646;DHT22;7922;43.622;1.476;2022-07-19T10:57:53;31.80;99.90
15646;DHT22;7922;43.622;1.476;2022-07-19T11:00:27;32.00;99.90
15646;DHT22;7922;43.622;1.476;2022-07-19T11:05:56;32.00;99.90
15646;DHT22;7922;43.622;1.476;2022-07-19T11:08:41;32.10;99.90
15646;DHT22;7922;43.622;1.476;2022-07-19T11:13:33;32.60;99.90
15646;DHT22;7922;43.622;1.476;2022-07-19T11:15:59;32.50;99.90
15646;DHT22;7922;43.622;1.476;2022-07-19T11:18:26;32.60;99.90
15646;DHT22;7922;43.622;1.476;2022-07-19T11:20:55;32.60;99.90
15646;DHT22;7922;43.622;1.476;2022-07-19T11:23:21;32.60;99.90
15646;DHT22;7922;43.622;1.476;2022-07-19T11:25:47;32.50;99.90
15646;DHT22;7922;43.622;1.476;2022-07-19T11:28:23;32.30;99.90
15646;DHT22;7922;43.622;1.476;2022-07-19T11:30:50;32.40;99.90
15646;DHT22;7922;43.622;1.476;2022-07-19T11:33:19;32.50;99.90
15646;DHT22;7922;43.622;1.476;2022-07-19T11:35:59;32.70;99.90
15646;DHT22;7922;43.622;1.476;2022-07-19T11:38:43;32.70;99.90
15646;DHT22;7922;43.622;1.476;2022-07-19T11:41:20;32.80;99.90
15646;DHT22;7922;43.622;1.476;2022-07-19T11:44:07;32.80;99.90
15646;DHT22;7922;43.622;1.476;2022-07-19T11:46:35;33.00;99.90
15646;DHT22;7922;43.622;1.476;2022-07-19T11:49:06;33.00;99.90
15646;DHT22;7922;43.622;1.476;2022-07-19T11:51:33;33.30;99.90
15646;DHT22;7922;43.622;1.476;2022-07-19T11:54:00;33.30;99.90
15646;DHT22;7922;43.622;1.476;2022-07-19T11:56:31;33.20;99.90
15646;DHT22;7922;43.622;1.476;2022-07-19T11:58:59;33.10;99.90
15646;DHT22;7922;43.622;1.476;2022-07-19T12:01:34;33.20;99.90
15646;DHT22;7922;43.622;1.476;2022-07-19T12:04:05;33.20;99.90
15646;DHT22;7922;43.622;1.476;2022-07-19T12:06:39;33.30;99.90
15646;DHT22;7922;43.622;1.476;2022-07-19T12:09:06;33.30;99.90
15646;DHT22;7922;43.622;1.476;2022-07-19T12:16:45;33.70;99.90
15646;DHT22;7922;43.622;1.476;2022-07-19T12:19:12;33.90;99.90
15646;DHT22;7922;43.622;1.476;2022-07-19T12:21:40;33.70;99.90
15646;DHT22;7922;43.622;1.476;2022-07-19T12:24:19;33.90;99.90
15646;DHT22;7922;43.622;1.476;2022-07-19T12:34:24;34.10;99.90
15646;DHT22;7922;43.622;1.476;2022-07-19T12:36:50;34.10;99.90
15646;DHT22;7922;43.622;1.476;2022-07-19T12:39:21;34.20;99.90
15646;DHT22;7922;43.622;1.476;2022-07-19T12:44:19;34.40;99.90
15646;DHT22;7922;43.622;1.476;2022-07-19T12:46:45;34.30;99.90
15646;DHT22;7922;43.622;1.476;2022-07-19T12:49:11;34.20;99.90
15646;DHT22;7922;43.622;1.476;2022-07-19T12:51:36;34.10;99.90
15646;DHT22;7922;43.622;1.476;2022-07-19T12:54:08;34.10;99.90
15646;DHT22;7922;43.622;1.476;2022-07-19T12:56:33;34.10;99.90
15646;DHT22;7922;43.622;1.476;2022-07-19T12:58:59;34.30;99.90
15646;DHT22;7922;43.622;1.476;2022-07-19T13:01:43;34.20;99.90
15646;DHT22;7922;43.622;1.476;2022-07-19T13:04:09;34.30;99.90
15646;DHT22;7922;43.622;1.476;2022-07-19T13:06:35;34.30;99.90
15646;DHT22;7922;43.622;1.476;2022-07-19T13:09:00;34.50;99.90
15646;DHT22;7922;43.622;1.476;2022-07-19T13:11:26;34.70;99.90
15646;DHT22;7922;43.622;1.476;2022-07-19T13:13:52;34.80;99.90
15646;DHT22;7922;43.622;1.476;2022-07-19T13:16:18;34.80;99.90
15646;DHT22;7922;43.622;1.476;2022-07-19T13:18:46;34.70;99.90
15646;DHT22;7922;43.622;1.476;2022-07-19T13:21:15;34.60;99.90
15646;DHT22;7922;43.622;1.476;2022-07-19T13:23:41;34.60;99.90
15646;DHT22;7922;43.622;1.476;2022-07-19T13:26:07;34.50;99.90
15646;DHT22;7922;43.622;1.476;2022-07-19T13:28:33;34.50;99.70
15646;DHT22;7922;43.622;1.476;2022-07-19T13:31:00;34.40;99.90
15646;DHT22;7922;43.622;1.476;2022-07-19T13:33:26;34.50;99.90
15646;DHT22;7922;43.622;1.476;2022-07-19T13:35:52;34.70;99.90
15646;DHT22;7922;43.622;1.476;2022-07-19T13:38:17;34.60;99.90
15646;DHT22;7922;43.622;1.476;2022-07-19T13:40:43;34.70;99.90
15646;DHT22;7922;43.622;1.476;2022-07-19T13:43:09;34.80;99.30
15646;DHT22;7922;43.622;1.476;2022-07-19T13:45:35;34.90;98.90
15646;DHT22;7922;43.622;1.476;2022-07-19T13:48:00;35.00;98.80
15646;DHT22;7922;43.622;1.476;2022-07-19T13:50:27;35.00;98.60
15646;DHT22;7922;43.622;1.476;2022-07-19T13:52:54;35.00;98.30
15646;DHT22;7922;43.622;1.476;2022-07-19T13:55:20;34.90;98.40
15646;DHT22;7922;43.622;1.476;2022-07-19T13:57:46;34.90;98.90
15646;DHT22;7922;43.622;1.476;2022-07-19T14:00:12;34.90;97.40
15646;DHT22;7922;43.622;1.476;2022-07-19T14:02:38;34.80;97.70
15646;DHT22;7922;43.622;1.476;2022-07-19T14:05:04;34.90;98.50
15646;DHT22;7922;43.622;1.476;2022-07-19T14:07:31;34.90;98.30
15646;DHT22;7922;43.622;1.476;2022-07-19T14:09:56;35.00;97.60
15646;DHT22;7922;43.622;1.476;2022-07-19T14:12:22;34.90;97.40
15646;DHT22;7922;43.622;1.476;2022-07-19T14:14:48;35.10;97.10
15646;DHT22;7922;43.622;1.476;2022-07-19T14:17:14;35.10;96.80
15646;DHT22;7922;43.622;1.476;2022-07-19T14:19:42;35.10;96.80
15646;DHT22;7922;43.622;1.476;2022-07-19T14:22:08;35.10;97.00
15646;DHT22;7922;43.622;1.476;2022-07-19T14:24:34;35.30;96.80
15646;DHT22;7922;43.622;1.476;2022-07-19T14:27:00;35.30;96.30
15646;DHT22;7922;43.622;1.476;2022-07-19T14:29:26;35.30;96.20
15646;DHT22;7922;43.622;1.476;2022-07-19T14:31:52;35.20;95.80
15646;DHT22;7922;43.622;1.476;2022-07-19T14:34:17;35.10;96.60
15646;DHT22;7922;43.622;1.476;2022-07-19T14:36:43;35.30;96.40
15646;DHT22;7922;43.622;1.476;2022-07-19T14:39:09;35.10;96.50
15646;DHT22;7922;43.622;1.476;2022-07-19T14:41:36;35.10;96.70
15646;DHT22;7922;43.622;1.476;2022-07-19T14:44:02;35.20;96.90
15646;DHT22;7922;43.622;1.476;2022-07-19T14:46:28;35.30;96.50
15646;DHT22;7922;43.622;1.476;2022-07-19T14:48:55;35.20;96.60
15646;DHT22;7922;43.622;1.476;2022-07-19T14:51:21;35.40;96.20
15646;DHT22;7922;43.622;1.476;2022-07-19T14:53:47;35.50;96.00
15646;DHT22;7922;43.622;1.476;2022-07-19T14:56:13;35.50;96.00
15646;DHT22;7922;43.622;1.476;2022-07-19T14:58:38;35.40;95.80
15646;DHT22;7922;43.622;1.476;2022-07-19T15:01:04;35.30;96.00
15646;DHT22;7922;43.622;1.476;2022-07-19T15:03:31;35.10;95.90
15646;DHT22;7922;43.622;1.476;2022-07-19T15:05:57;34.90;96.60
15646;DHT22;7922;43.622;1.476;2022-07-19T15:08:22;34.70;96.60
15646;DHT22;7922;43.622;1.476;2022-07-19T15:10:48;34.70;96.70
15646;DHT22;7922;43.622;1.476;2022-07-19T15:13:14;34.50;96.40
15646;DHT22;7922;43.622;1.476;2022-07-19T15:15:40;34.50;96.80
15646;DHT22;7922;43.622;1.476;2022-07-19T15:18:06;34.50;97.50
15646;DHT22;7922;43.622;1.476;2022-07-19T15:20:32;34.70;97.20
15646;DHT22;7922;43.622;1.476;2022-07-19T15:22:59;34.90;97.20
15646;DHT22;7922;43.622;1.476;2022-07-19T15:25:26;35.10;96.80
15646;DHT22;7922;43.622;1.476;2022-07-19T15:27:52;35.20;96.30
15646;DHT22;7922;43.622;1.476;2022-07-19T15:30:21;35.30;96.20
15646;DHT22;7922;43.622;1.476;2022-07-19T15:32:47;35.20;95.90
15646;DHT22;7922;43.622;1.476;2022-07-19T15:35:12;35.20;96.00
15646;DHT22;7922;43.622;1.476;2022-07-19T15:37:38;35.20;96.40
15646;DHT22;7922;43.622;1.476;2022-07-19T15:40:05;35.20;96.00
15646;DHT22;7922;43.622;1.476;2022-07-19T15:42:31;35.30;96.30
15646;DHT22;7922;43.622;1.476;2022-07-19T15:45:06;35.30;96.00
15646;DHT22;7922;43.622;1.476;2022-07-19T15:47:32;35.40;96.20
15646;DHT22;7922;43.622;1.476;2022-07-19T15:49:58;35.30;95.90
15646;DHT22;7922;43.622;1.476;2022-07-19T15:52:23;35.40;96.00
15646;DHT22;7922;43.622;1.476;2022-07-19T15:54:49;35.40;95.50
15646;DHT22;7922;43.622;1.476;2022-07-19T15:57:15;35.30;95.60
15646;DHT22;7922;43.622;1.476;2022-07-19T15:59:40;35.20;95.60
15646;DHT22;7922;43.622;1.476;2022-07-19T16:02:06;35.10;95.90
15646;DHT22;7922;43.622;1.476;2022-07-19T16:04:32;35.30;95.80
15646;DHT22;7922;43.622;1.476;2022-07-19T16:06:58;35.30;95.90
15646;DHT22;7922;43.622;1.476;2022-07-19T16:09:23;35.30;95.60
15646;DHT22;7922;43.622;1.476;2022-07-19T16:11:49;35.20;95.70
15646;DHT22;7922;43.622;1.476;2022-07-19T16:14:15;35.20;96.00
15646;DHT22;7922;43.622;1.476;2022-07-19T16:16:41;35.10;96.00
15646;DHT22;7922;43.622;1.476;2022-07-19T16:19:06;35.10;96.00
15646;DHT22;7922;43.622;1.476;2022-07-19T16:21:32;35.20;96.00
15646;DHT22;7922;43.622;1.476;2022-07-19T16:23:58;35.20;95.70
15646;DHT22;7922;43.622;1.476;2022-07-19T16:26:23;35.20;95.80
15646;DHT22;7922;43.622;1.476;2022-07-19T16:28:49;35.30;95.70
15646;DHT22;7922;43.622;1.476;2022-07-19T16:31:15;35.20;96.00
15646;DHT22;7922;43.622;1.476;2022-07-19T16:33:41;35.20;96.20
15646;DHT22;7922;43.622;1.476;2022-07-19T16:36:07;35.20;96.00
15646;DHT22;7922;43.622;1.476;2022-07-19T16:38:33;35.30;96.00
15646;DHT22;7922;43.622;1.476;2022-07-19T16:40:58;35.10;95.80
15646;DHT22;7922;43.622;1.476;2022-07-19T16:43:24;35.00;95.90
15646;DHT22;7922;43.622;1.476;2022-07-19T16:45:50;35.10;96.10
15646;DHT22;7922;43.622;1.476;2022-07-19T16:48:17;35.30;95.90
15646;DHT22;7922;43.622;1.476;2022-07-19T16:50:43;35.40;95.80